createdAt,value
2018-09-09T00:00:54.691Z,1016.72
2018-09-09T00:01:54.675Z,1016.74
2018-09-09T00:02:54.656Z,1016.77
2018-09-09T00:03:54.639Z,1016.74
2018-09-09T00:04:55.631Z,1016.71
2018-09-09T00:05:54.601Z,1016.73
2018-09-09T00:06:54.586Z,1016.77
2018-09-09T00:07:54.564Z,1016.73
2018-09-09T00:08:54.553Z,1016.74
2018-09-09T00:09:54.531Z,1016.74
2018-09-09T00:10:54.514Z,1016.69
2018-09-09T00:11:54.496Z,1016.74
2018-09-09T00:12:54.480Z,1016.73
2018-09-09T00:13:54.459Z,1016.76
2018-09-09T00:14:54.440Z,1016.79
2018-09-09T00:15:54.425Z,1016.79
2018-09-09T00:16:54.410Z,1016.79
2018-09-09T00:17:54.389Z,1016.81
2018-09-09T00:18:54.369Z,1016.81
2018-09-09T00:19:54.353Z,1016.85
2018-09-09T00:20:54.336Z,1016.87
2018-09-09T00:21:54.319Z,1016.86
2018-09-09T00:22:54.300Z,1016.84
2018-09-09T00:23:54.282Z,1016.85
2018-09-09T00:24:54.265Z,1016.87
2018-09-09T00:25:54.249Z,1016.87
2018-09-09T00:26:54.230Z,1016.85
2018-09-09T00:27:54.213Z,1016.84
2018-09-09T00:28:54.195Z,1016.84
2018-09-09T00:29:54.176Z,1016.87
2018-09-09T00:30:54.158Z,1016.84
2018-09-09T00:31:54.144Z,1016.85
2018-09-09T00:32:54.127Z,1016.83
2018-09-09T00:33:54.107Z,1016.86
2018-09-09T00:34:54.089Z,1016.86
2018-09-09T00:35:54.072Z,1016.90
2018-09-09T00:36:54.056Z,1016.86
2018-09-09T00:37:54.036Z,1016.86
2018-09-09T00:38:54.020Z,1016.87
2018-09-09T00:39:54.000Z,1016.90
2018-09-09T00:40:53.984Z,1016.94
2018-09-09T00:41:53.965Z,1016.95
2018-09-09T00:42:53.948Z,1017.00
2018-09-09T00:43:53.930Z,1016.95
2018-09-09T00:44:53.916Z,1016.93
2018-09-09T00:45:53.893Z,1016.91
2018-09-09T00:46:53.877Z,1016.88
2018-09-09T00:47:53.863Z,1016.88
2018-09-09T00:48:53.843Z,1016.87
2018-09-09T00:49:53.824Z,1016.87
2018-09-09T00:50:53.805Z,1016.85
2018-09-09T00:51:53.791Z,1016.84
2018-09-09T00:52:53.772Z,1016.81
2018-09-09T00:53:53.756Z,1016.81
2018-09-09T00:54:53.736Z,1016.82
2018-09-09T00:55:53.718Z,1016.78
2018-09-09T00:56:53.702Z,1016.75
2018-09-09T00:57:53.683Z,1016.76
2018-09-09T00:58:53.665Z,1016.76
2018-09-09T00:59:53.648Z,1016.73
2018-09-09T01:00:53.632Z,1016.70
2018-09-09T01:01:53.613Z,1016.71
2018-09-09T01:02:53.595Z,1016.72
2018-09-09T01:03:53.578Z,1016.65
2018-09-09T01:04:53.561Z,1016.60
2018-09-09T01:05:53.542Z,1016.58
2018-09-09T01:06:53.525Z,1016.60
2018-09-09T01:07:53.507Z,1016.62
2018-09-09T01:08:53.489Z,1016.61
2018-09-09T01:09:53.471Z,1016.57
2018-09-09T01:10:53.453Z,1016.61
2018-09-09T01:11:53.436Z,1016.61
2018-09-09T01:12:53.421Z,1016.64
2018-09-09T01:13:53.401Z,1016.64
2018-09-09T01:14:53.383Z,1016.64
2018-09-09T01:15:53.365Z,1016.61
2018-09-09T01:16:53.348Z,1016.56
2018-09-09T01:17:53.330Z,1016.54
2018-09-09T01:18:53.312Z,1016.54
2018-09-09T01:19:53.293Z,1016.53
2018-09-09T01:20:53.280Z,1016.49
2018-09-09T01:21:53.260Z,1016.52
2018-09-09T01:22:53.240Z,1016.55
2018-09-09T01:23:53.225Z,1016.53
2018-09-09T01:24:53.207Z,1016.54
2018-09-09T01:25:53.190Z,1016.59
2018-09-09T01:26:53.171Z,1016.58
2018-09-09T01:27:53.153Z,1016.57
2018-09-09T01:28:53.135Z,1016.60
2018-09-09T01:29:53.118Z,1016.59
2018-09-09T01:30:53.098Z,1016.56
2018-09-09T01:31:53.082Z,1016.53
2018-09-09T01:32:53.066Z,1016.49
2018-09-09T01:33:53.046Z,1016.50
2018-09-09T01:34:53.028Z,1016.49
2018-09-09T01:35:53.011Z,1016.49
2018-09-09T01:36:52.995Z,1016.49
2018-09-09T01:37:52.976Z,1016.49
2018-09-09T01:38:52.959Z,1016.52
2018-09-09T01:39:55.566Z,1016.51
2018-09-09T01:40:52.924Z,1016.48
2018-09-09T01:41:52.905Z,1016.53
2018-09-09T01:42:52.903Z,1016.56
2018-09-09T01:43:52.870Z,1016.57
2018-09-09T01:44:52.852Z,1016.62
2018-09-09T01:45:52.838Z,1016.63
2018-09-09T01:46:52.818Z,1016.62
2018-09-09T01:47:52.800Z,1016.64
2018-09-09T01:48:52.784Z,1016.63
2018-09-09T01:49:52.763Z,1016.58
2018-09-09T01:50:52.749Z,1016.58
2018-09-09T01:51:52.731Z,1016.57
2018-09-09T01:52:52.711Z,1016.57
2018-09-09T01:53:52.693Z,1016.57
2018-09-09T01:54:52.677Z,1016.55
2018-09-09T01:55:52.662Z,1016.54
2018-09-09T01:56:52.645Z,1016.61
2018-09-09T01:57:52.623Z,1016.58
2018-09-09T01:58:52.606Z,1016.57
2018-09-09T01:59:52.587Z,1016.63
2018-09-09T02:00:52.571Z,1016.64
2018-09-09T02:01:52.582Z,1016.64
2018-09-09T02:02:52.536Z,1016.67
2018-09-09T02:03:52.518Z,1016.66
2018-09-09T02:04:52.499Z,1016.66
2018-09-09T02:05:52.483Z,1016.68
2018-09-09T02:06:52.464Z,1016.72
2018-09-09T02:07:52.447Z,1016.70
2018-09-09T02:08:52.429Z,1016.73
2018-09-09T02:09:52.412Z,1016.71
2018-09-09T02:10:52.396Z,1016.72
2018-09-09T02:11:52.377Z,1016.70
2018-09-09T02:12:52.359Z,1016.70
2018-09-09T02:13:52.345Z,1016.74
2018-09-09T02:14:52.333Z,1016.69
2018-09-09T02:15:52.306Z,1016.72
2018-09-09T02:16:52.291Z,1016.70
2018-09-09T02:17:52.271Z,1016.70
2018-09-09T02:18:52.256Z,1016.71
2018-09-09T02:19:52.236Z,1016.73
2018-09-09T02:20:52.218Z,1016.71
2018-09-09T02:21:52.200Z,1016.70
2018-09-09T02:22:52.184Z,1016.73
2018-09-09T02:23:52.166Z,1016.72
2018-09-09T02:24:52.148Z,1016.77
2018-09-09T02:25:52.156Z,1016.73
2018-09-09T02:26:52.115Z,1016.74
2018-09-09T02:27:52.096Z,1016.76
2018-09-09T02:28:52.080Z,1016.71
2018-09-09T02:29:52.061Z,1016.72
2018-09-09T02:30:52.040Z,1016.72
2018-09-09T02:31:52.025Z,1016.73
2018-09-09T02:32:52.012Z,1016.72
2018-09-09T02:33:51.990Z,1016.76
2018-09-09T02:34:51.977Z,1016.73
2018-09-09T02:35:51.954Z,1016.72
2018-09-09T02:36:51.935Z,1016.70
2018-09-09T02:37:51.917Z,1016.67
2018-09-09T02:38:51.899Z,1016.69
2018-09-09T02:39:51.893Z,1016.72
2018-09-09T02:40:51.867Z,1016.69
2018-09-09T02:41:51.848Z,1016.70
2018-09-09T02:42:51.834Z,1016.71
2018-09-09T02:43:51.985Z,1016.70
2018-09-09T02:44:51.796Z,1016.68
2018-09-09T02:45:51.778Z,1016.67
2018-09-09T02:46:51.759Z,1016.66
2018-09-09T02:47:51.742Z,1016.73
2018-09-09T02:48:51.726Z,1016.68
2018-09-09T02:49:51.706Z,1016.73
2018-09-09T02:50:51.693Z,1016.69
2018-09-09T02:51:51.673Z,1016.66
2018-09-09T02:52:51.653Z,1016.69
2018-09-09T02:53:51.637Z,1016.70
2018-09-09T02:54:51.618Z,1016.66
2018-09-09T02:55:51.601Z,1016.65
2018-09-09T02:56:51.589Z,1016.64
2018-09-09T02:57:51.564Z,1016.66
2018-09-09T02:58:51.545Z,1016.68
2018-09-09T02:59:51.529Z,1016.64
2018-09-09T03:00:51.516Z,1016.68
2018-09-09T03:01:51.498Z,1016.67
2018-09-09T03:02:51.480Z,1016.69
2018-09-09T03:03:51.460Z,1016.69
2018-09-09T03:04:51.441Z,1016.72
2018-09-09T03:05:51.423Z,1016.71
2018-09-09T03:06:51.404Z,1016.71
2018-09-09T03:07:51.390Z,1016.70
2018-09-09T03:08:51.371Z,1016.70
2018-09-09T03:09:51.350Z,1016.73
2018-09-09T03:10:51.336Z,1016.70
2018-09-09T03:11:51.315Z,1016.72
2018-09-09T03:12:51.300Z,1016.69
2018-09-09T03:13:51.279Z,1016.68
2018-09-09T03:14:51.262Z,1016.70
2018-09-09T03:15:51.246Z,1016.72
2018-09-09T03:16:51.228Z,1016.71
2018-09-09T03:17:51.209Z,1016.68
2018-09-09T03:18:51.192Z,1016.65
2018-09-09T03:19:51.174Z,1016.65
2018-09-09T03:20:51.158Z,1016.66
2018-09-09T03:21:51.137Z,1016.61
2018-09-09T03:22:51.122Z,1016.55
2018-09-09T03:23:51.108Z,1016.53
2018-09-09T03:24:51.089Z,1016.52
2018-09-09T03:25:51.066Z,1016.55
2018-09-09T03:26:51.050Z,1016.51
2018-09-09T03:27:51.034Z,1016.56
2018-09-09T03:28:51.083Z,1016.62
2018-09-09T03:29:51.006Z,1016.64
2018-09-09T03:30:50.980Z,1016.67
2018-09-09T03:31:50.961Z,1016.71
2018-09-09T03:32:50.946Z,1016.69
2018-09-09T03:33:50.924Z,1016.66
2018-09-09T03:34:50.914Z,1016.66
2018-09-09T03:35:50.890Z,1016.67
2018-09-09T03:36:50.873Z,1016.64
2018-09-09T03:37:50.854Z,1016.62
2018-09-09T03:38:50.835Z,1016.57
2018-09-09T03:39:50.817Z,1016.58
2018-09-09T03:40:50.801Z,1016.59
2018-09-09T03:41:50.781Z,1016.61
2018-09-09T03:42:50.764Z,1016.58
2018-09-09T03:43:50.745Z,1016.55
2018-09-09T03:44:51.336Z,1016.53
2018-09-09T03:45:50.710Z,1016.55
2018-09-09T03:46:50.692Z,1016.56
2018-09-09T03:47:50.673Z,1016.53
2018-09-09T03:48:50.657Z,1016.53
2018-09-09T03:49:50.641Z,1016.54
2018-09-09T03:50:50.618Z,1016.48
2018-09-09T03:51:50.605Z,1016.53
2018-09-09T03:52:50.589Z,1016.56
2018-09-09T03:53:50.564Z,1016.55
2018-09-09T03:54:50.550Z,1016.55
2018-09-09T03:55:50.531Z,1016.64
2018-09-09T03:56:50.515Z,1016.66
2018-09-09T03:57:50.492Z,1016.67
2018-09-09T03:58:50.479Z,1016.62
2018-09-09T03:59:50.458Z,1016.64
2018-09-09T04:00:50.439Z,1016.62
2018-09-09T04:01:50.421Z,1016.63
2018-09-09T04:02:50.404Z,1016.65
2018-09-09T04:03:50.387Z,1016.65
2018-09-09T04:04:50.367Z,1016.65
2018-09-09T04:05:50.349Z,1016.68
2018-09-09T04:06:50.333Z,1016.65
2018-09-09T04:07:50.316Z,1016.68
2018-09-09T04:08:50.296Z,1016.65
2018-09-09T04:09:50.276Z,1016.67
2018-09-09T04:10:50.258Z,1016.69
2018-09-09T04:11:52.542Z,1016.69
2018-09-09T04:12:50.224Z,1016.69
2018-09-09T04:13:50.204Z,1016.66
2018-09-09T04:14:50.188Z,1016.64
2018-09-09T04:15:50.171Z,1016.58
2018-09-09T04:16:50.147Z,1016.57
2018-09-09T04:17:50.132Z,1016.59
2018-09-09T04:18:50.118Z,1016.60
2018-09-09T04:19:50.098Z,1016.62
2018-09-09T04:20:50.077Z,1016.61
2018-09-09T04:21:50.063Z,1016.64
2018-09-09T04:22:50.850Z,1016.64
2018-09-09T04:23:50.025Z,1016.62
2018-09-09T04:24:50.006Z,1016.62
2018-09-09T04:25:49.988Z,1016.62
2018-09-09T04:26:49.971Z,1016.61
2018-09-09T04:27:49.950Z,1016.62
2018-09-09T04:28:49.936Z,1016.69
2018-09-09T04:29:49.914Z,1016.65
2018-09-09T04:30:49.948Z,1016.71
2018-09-09T04:31:49.881Z,1016.63
2018-09-09T04:32:49.861Z,1016.66
2018-09-09T04:33:49.842Z,1016.61
2018-09-09T04:34:49.826Z,1016.63
2018-09-09T04:35:49.805Z,1016.66
2018-09-09T04:36:49.788Z,1016.68
2018-09-09T04:37:49.770Z,1016.72
2018-09-09T04:38:49.752Z,1016.68
2018-09-09T04:39:49.737Z,1016.72
2018-09-09T04:40:49.716Z,1016.67
2018-09-09T04:41:49.696Z,1016.66
2018-09-09T04:42:49.678Z,1016.73
2018-09-09T04:43:49.669Z,1016.72
2018-09-09T04:44:49.647Z,1016.78
2018-09-09T04:45:49.624Z,1016.79
2018-09-09T04:46:49.608Z,1016.77
2018-09-09T04:47:49.587Z,1016.72
2018-09-09T04:48:49.577Z,1016.73
2018-09-09T04:49:49.554Z,1016.73
2018-09-09T04:50:49.535Z,1016.73
2018-09-09T04:51:49.513Z,1016.76
2018-09-09T04:52:49.497Z,1016.77
2018-09-09T04:53:49.476Z,1016.82
2018-09-09T04:54:49.459Z,1016.81
2018-09-09T04:55:49.444Z,1016.83
2018-09-09T04:56:49.423Z,1016.86
2018-09-09T04:57:49.404Z,1016.87
2018-09-09T04:58:49.386Z,1016.88
2018-09-09T04:59:49.368Z,1016.89
2018-09-09T05:00:49.352Z,1016.88
2018-09-09T05:01:49.331Z,1016.88
2018-09-09T05:02:49.319Z,1016.84
2018-09-09T05:03:49.296Z,1016.87
2018-09-09T05:04:49.279Z,1016.87
2018-09-09T05:05:49.259Z,1016.90
2018-09-09T05:06:49.239Z,1016.89
2018-09-09T05:07:49.229Z,1016.93
2018-09-09T05:08:49.204Z,1016.94
2018-09-09T05:09:49.186Z,1016.97
2018-09-09T05:10:49.167Z,1016.92
2018-09-09T05:11:49.148Z,1016.94
2018-09-09T05:12:49.132Z,1017.00
2018-09-09T05:13:49.116Z,1016.99
2018-09-09T05:14:49.100Z,1017.06
2018-09-09T05:15:49.080Z,1017.01
2018-09-09T05:16:49.058Z,1017.01
2018-09-09T05:17:49.040Z,1017.05
2018-09-09T05:18:49.022Z,1017.05
2018-09-09T05:19:49.004Z,1017.05
2018-09-09T05:20:48.985Z,1017.02
2018-09-09T05:21:48.970Z,1017.03
2018-09-09T05:22:48.948Z,1016.98
2018-09-09T05:23:48.930Z,1016.96
2018-09-09T05:24:48.917Z,1017.00
2018-09-09T05:25:48.894Z,1017.01
2018-09-09T05:26:48.875Z,1016.95
2018-09-09T05:27:48.857Z,1016.92
2018-09-09T05:28:48.843Z,1016.97
2018-09-09T05:29:48.822Z,1016.97
2018-09-09T05:30:48.805Z,1016.96
2018-09-09T05:31:48.788Z,1016.97
2018-09-09T05:32:48.769Z,1017.00
2018-09-09T05:33:48.750Z,1017.02
2018-09-09T05:34:48.734Z,1017.03
2018-09-09T05:35:48.721Z,1016.98
2018-09-09T05:36:48.695Z,1016.98
2018-09-09T05:37:48.680Z,1016.99
2018-09-09T05:38:48.659Z,1016.99
2018-09-09T05:39:48.649Z,1017.00
2018-09-09T05:40:48.625Z,1016.99
2018-09-09T05:41:48.606Z,1017.00
2018-09-09T05:42:48.589Z,1016.97
2018-09-09T05:43:48.570Z,1016.96
2018-09-09T05:44:48.627Z,1016.98
2018-09-09T05:45:48.534Z,1016.99
2018-09-09T05:46:48.516Z,1016.95
2018-09-09T05:47:48.504Z,1016.98
2018-09-09T05:48:48.485Z,1017.00
2018-09-09T05:49:48.463Z,1016.98
2018-09-09T05:50:48.447Z,1017.00
2018-09-09T05:51:48.428Z,1016.99
2018-09-09T05:52:48.410Z,1017.04
2018-09-09T05:53:48.417Z,1017.01
2018-09-09T05:54:48.373Z,1017.03
2018-09-09T05:55:48.356Z,1017.07
2018-09-09T05:56:48.337Z,1017.05
2018-09-09T05:57:48.337Z,1017.06
2018-09-09T05:58:48.302Z,1017.08
2018-09-09T05:59:48.292Z,1017.10
2018-09-09T06:00:48.267Z,1017.13
2018-09-09T06:01:48.249Z,1017.14
2018-09-09T06:02:48.231Z,1017.12
2018-09-09T06:03:48.215Z,1017.14
2018-09-09T06:04:48.197Z,1017.19
2018-09-09T06:05:48.185Z,1017.17
2018-09-09T06:06:48.165Z,1017.15
2018-09-09T06:07:48.142Z,1017.20
2018-09-09T06:08:48.127Z,1017.15
2018-09-09T06:09:48.107Z,1017.14
2018-09-09T06:10:48.092Z,1017.20
2018-09-09T06:11:48.077Z,1017.17
2018-09-09T06:12:48.060Z,1017.21
2018-09-09T06:13:48.040Z,1017.16
2018-09-09T06:14:48.019Z,1017.16
2018-09-09T06:15:48.003Z,1017.19
2018-09-09T06:16:47.995Z,1017.18
2018-09-09T06:17:47.968Z,1017.20
2018-09-09T06:18:47.952Z,1017.19
2018-09-09T06:19:47.935Z,1017.21
2018-09-09T06:20:47.921Z,1017.19
2018-09-09T06:21:47.899Z,1017.21
2018-09-09T06:22:47.883Z,1017.17
2018-09-09T06:23:47.864Z,1017.20
2018-09-09T06:24:47.847Z,1017.23
2018-09-09T06:25:47.831Z,1017.21
2018-09-09T06:26:47.814Z,1017.23
2018-09-09T06:27:47.798Z,1017.21
2018-09-09T06:28:47.782Z,1017.17
2018-09-09T06:29:47.761Z,1017.23
2018-09-09T06:30:47.744Z,1017.26
2018-09-09T06:31:47.727Z,1017.27
2018-09-09T06:32:47.713Z,1017.31
2018-09-09T06:33:47.714Z,1017.34
2018-09-09T06:34:47.676Z,1017.34
2018-09-09T06:35:47.672Z,1017.35
2018-09-09T06:36:47.646Z,1017.37
2018-09-09T06:37:47.626Z,1017.40
2018-09-09T06:38:47.614Z,1017.45
2018-09-09T06:39:47.594Z,1017.47
2018-09-09T06:40:47.580Z,1017.44
2018-09-09T06:41:47.557Z,1017.48
2018-09-09T06:42:47.543Z,1017.48
2018-09-09T06:43:47.531Z,1017.48
2018-09-09T06:44:47.511Z,1017.49
2018-09-09T06:45:47.493Z,1017.45
2018-09-09T06:46:47.476Z,1017.40
2018-09-09T06:47:47.460Z,1017.36
2018-09-09T06:48:47.448Z,1017.35
2018-09-09T06:49:47.428Z,1017.37
2018-09-09T06:50:47.461Z,1017.41
2018-09-09T06:51:47.396Z,1017.43
2018-09-09T06:52:47.381Z,1017.42
2018-09-09T06:53:47.367Z,1017.45
2018-09-09T06:54:47.345Z,1017.39
2018-09-09T06:55:47.329Z,1017.42
2018-09-09T06:56:47.313Z,1017.44
2018-09-09T06:57:47.300Z,1017.44
2018-09-09T06:58:47.285Z,1017.42
2018-09-09T06:59:47.265Z,1017.39
2018-09-09T07:00:47.249Z,1017.41
2018-09-09T07:01:47.232Z,1017.46
2018-09-09T07:02:47.224Z,1017.43
2018-09-09T07:03:47.200Z,1017.44
2018-09-09T07:04:47.184Z,1017.46
2018-09-09T07:05:47.168Z,1017.40
2018-09-09T07:06:47.155Z,1017.48
2018-09-09T07:07:47.139Z,1017.43
2018-09-09T07:08:47.122Z,1017.42
2018-09-09T07:09:47.103Z,1017.48
2018-09-09T07:10:47.129Z,1017.47
2018-09-09T07:11:47.272Z,1017.54
2018-09-09T07:12:47.060Z,1017.60
2018-09-09T07:13:47.044Z,1017.67
2018-09-09T07:14:47.027Z,1017.69
2018-09-09T07:15:47.017Z,1017.71
2018-09-09T07:16:46.995Z,1017.67
2018-09-09T07:17:46.979Z,1017.63
2018-09-09T07:18:46.965Z,1017.63
2018-09-09T07:19:46.947Z,1017.61
2018-09-09T07:20:46.933Z,1017.63
2018-09-09T07:21:46.916Z,1017.65
2018-09-09T07:22:46.999Z,1017.67
2018-09-09T07:23:46.887Z,1017.64
2018-09-09T07:24:46.871Z,1017.64
2018-09-09T07:25:46.855Z,1017.64
2018-09-09T07:26:46.839Z,1017.65
2018-09-09T07:27:46.825Z,1017.65
2018-09-09T07:28:46.810Z,1017.66
2018-09-09T07:29:46.794Z,1017.65
2018-09-09T07:30:46.781Z,1017.68
2018-09-09T07:31:46.767Z,1017.67
2018-09-09T07:32:46.748Z,1017.63
2018-09-09T07:33:46.743Z,1017.69
2018-09-09T07:34:46.720Z,1017.74
2018-09-09T07:35:46.705Z,1017.75
2018-09-09T07:36:46.691Z,1017.83
2018-09-09T07:37:46.676Z,1017.89
2018-09-09T07:38:46.659Z,1017.96
2018-09-09T07:39:46.647Z,1018.09
2018-09-09T07:40:46.631Z,1018.19
2018-09-09T07:41:46.617Z,1018.38
2018-09-09T07:42:46.602Z,1018.72
2018-09-09T07:43:46.594Z,1019.01
2018-09-09T07:44:46.580Z,1019.16
2018-09-09T07:45:46.560Z,1020.38
2018-09-09T07:46:46.543Z,1020.79
2018-09-09T07:47:46.530Z,1022.44
2018-09-09T07:48:46.516Z,1020.44
2018-09-09T07:49:46.501Z,1020.78
2018-09-09T07:50:46.542Z,1020.69
2018-09-09T07:51:46.475Z,1019.53
2018-09-09T07:52:46.460Z,1019.13
2018-09-09T07:53:46.451Z,1019.51
2018-09-09T07:54:46.432Z,1021.38
2018-09-09T07:55:46.420Z,1020.34
2018-09-09T07:56:46.407Z,1020.57
2018-09-09T07:57:46.397Z,1022.24
2018-09-09T07:58:46.380Z,1022.64
2018-09-09T07:59:46.369Z,1024.19
2018-09-09T08:00:46.355Z,1022.13
2018-09-09T08:01:46.340Z,1025.67
2018-09-09T08:02:46.329Z,1025.53
2018-09-09T08:03:46.320Z,1022.44
2018-09-09T08:04:46.306Z,1022.92
2018-09-09T08:05:46.298Z,1023.65
2018-09-09T08:06:46.280Z,1023.64
2018-09-09T08:07:46.267Z,1022.41
2018-09-09T08:08:46.259Z,1022.55
2018-09-09T08:09:46.247Z,1024.92
2018-09-09T08:10:46.233Z,1023.37
2018-09-09T08:11:46.222Z,1025.42
2018-09-09T08:12:46.214Z,1024.27
2018-09-09T08:13:46.202Z,1028.39
2018-09-09T08:14:46.191Z,1027.92
2018-09-09T08:15:46.178Z,1028.36
2018-09-09T08:16:46.170Z,1027.62
2018-09-09T08:17:46.158Z,1033.92
2018-09-09T08:18:46.149Z,1035.48
2018-09-09T08:19:46.139Z,1034.29
2018-09-09T08:20:46.133Z,1035.47
2018-09-09T08:21:46.120Z,1032.69
2018-09-09T08:22:46.112Z,1031.44
2018-09-09T08:23:46.168Z,1035.45
2018-09-09T08:24:46.096Z,1030.49
2018-09-09T08:25:46.091Z,1026.03
2018-09-09T08:26:46.076Z,1023.95
2018-09-09T08:27:46.071Z,1023.06
2018-09-09T08:28:46.062Z,1023.60
2018-09-09T08:29:46.053Z,1023.54
2018-09-09T08:30:46.047Z,1025.23
2018-09-09T08:31:46.043Z,1025.43
2018-09-09T08:32:46.034Z,1026.51
2018-09-09T08:33:46.025Z,1026.41
2018-09-09T08:34:46.072Z,1025.18
2018-09-09T08:35:46.011Z,1026.42
2018-09-09T08:36:46.007Z,1028.63
2018-09-09T08:37:46.001Z,1027.61
2018-09-09T08:38:45.994Z,1027.31
2018-09-09T08:39:45.996Z,1027.55
2018-09-09T08:40:45.980Z,1026.22
2018-09-09T08:41:45.974Z,1026.89
2018-09-09T08:42:45.967Z,1027.75
2018-09-09T08:43:45.962Z,1026.54
2018-09-09T08:44:45.957Z,1029.07
2018-09-09T08:45:45.955Z,1023.94
2018-09-09T08:46:45.943Z,1023.48
2018-09-09T08:47:45.941Z,1023.25
2018-09-09T08:48:45.934Z,1023.55
2018-09-09T08:49:45.930Z,1025.32
2018-09-09T08:50:45.922Z,1025.08
2018-09-09T08:51:45.959Z,1025.99
2018-09-09T08:52:45.916Z,1023.27
2018-09-09T08:53:45.908Z,1025.30
2018-09-09T08:54:45.904Z,1025.19
2018-09-09T08:55:45.902Z,1026.03
2018-09-09T08:56:45.895Z,1021.88
2018-09-09T08:57:45.894Z,1021.24
2018-09-09T08:58:45.885Z,1020.24
2018-09-09T08:59:45.898Z,1020.24
2018-09-09T09:00:45.878Z,1020.24
2018-09-09T09:01:45.873Z,1023.82
2018-09-09T09:02:45.868Z,1022.56
2018-09-09T09:03:45.867Z,1021.12
2018-09-09T09:04:45.859Z,1021.42
2018-09-09T09:05:45.854Z,1023.24
2018-09-09T09:06:45.854Z,1023.69
2018-09-09T09:07:45.957Z,1023.02
2018-09-09T09:08:45.847Z,1022.36
2018-09-09T09:09:45.839Z,1021.83
2018-09-09T09:10:45.836Z,1021.30
2018-09-09T09:11:45.836Z,1021.09
2018-09-09T09:12:45.827Z,1020.63
2018-09-09T09:13:45.827Z,1020.07
2018-09-09T09:14:45.828Z,1019.67
2018-09-09T09:16:45.816Z,1019.11
2018-09-09T09:17:45.812Z,1018.89
2018-09-09T09:18:45.813Z,1018.68
2018-09-09T09:19:45.809Z,1018.63
2018-09-09T09:20:45.841Z,1018.51
2018-09-09T09:21:45.806Z,1018.48
2018-09-09T09:22:45.797Z,1018.50
2018-09-09T09:23:45.898Z,1018.45
2018-09-09T09:24:45.804Z,1018.52
2018-09-09T09:25:45.790Z,1018.59
2018-09-09T09:26:45.788Z,1018.57
2018-09-09T09:27:45.788Z,1018.56
2018-09-09T09:28:45.785Z,1018.55
2018-09-09T09:29:45.783Z,1018.57
2018-09-09T09:30:45.802Z,1018.55
2018-09-09T09:31:45.777Z,1018.61
2018-09-09T09:32:45.780Z,1018.62
2018-09-09T09:33:45.823Z,1018.62
2018-09-09T09:34:45.771Z,1018.65
2018-09-09T09:35:45.770Z,1018.66
2018-09-09T09:36:45.767Z,1018.67
2018-09-09T09:37:45.766Z,1018.68
2018-09-09T09:38:45.768Z,1018.73
2018-09-09T09:39:45.766Z,1018.77
2018-09-09T09:40:45.762Z,1018.77
2018-09-09T09:41:45.772Z,1018.87
2018-09-09T09:42:45.760Z,1018.89
2018-09-09T09:43:45.759Z,1018.93
2018-09-09T09:44:45.784Z,1018.94
2018-09-09T09:45:45.756Z,1018.90
2018-09-09T09:46:45.758Z,1018.95
2018-09-09T09:47:45.754Z,1019.00
2018-09-09T09:48:45.753Z,1019.05
2018-09-09T09:49:45.751Z,1019.05
2018-09-09T09:50:45.752Z,1019.09
2018-09-09T09:51:45.752Z,1019.07
2018-09-09T09:52:45.749Z,1019.06
2018-09-09T09:53:45.754Z,1019.04
2018-09-09T09:54:45.752Z,1019.04
2018-09-09T09:55:45.748Z,1019.06
2018-09-09T09:56:45.751Z,1019.02
2018-09-09T09:57:45.753Z,1019.08
2018-09-09T09:58:45.754Z,1019.08
2018-09-09T09:59:45.747Z,1019.07
2018-09-09T10:00:45.746Z,1019.11
2018-09-09T10:01:45.750Z,1019.07
2018-09-09T10:02:45.746Z,1019.09
2018-09-09T10:03:45.751Z,1019.05
2018-09-09T10:04:45.745Z,1019.01
2018-09-09T10:05:45.743Z,1019.06
2018-09-09T10:06:45.747Z,1019.10
2018-09-09T10:07:45.792Z,1019.10
2018-09-09T10:08:45.746Z,1019.09
2018-09-09T10:09:45.745Z,1019.04
2018-09-09T10:10:45.751Z,1019.03
2018-09-09T10:11:45.748Z,1019.01
2018-09-09T10:12:45.748Z,1018.94
2018-09-09T10:13:45.750Z,1018.93
2018-09-09T10:14:45.747Z,1018.93
2018-09-09T10:15:45.749Z,1018.98
2018-09-09T10:16:45.751Z,1018.97
2018-09-09T10:17:45.750Z,1018.95
2018-09-09T10:18:45.750Z,1018.98
2018-09-09T10:19:45.758Z,1018.97
2018-09-09T10:20:45.755Z,1018.98
2018-09-09T10:21:45.752Z,1018.97
2018-09-09T10:22:45.760Z,1018.95
2018-09-09T10:23:45.809Z,1019.03
2018-09-09T10:24:45.757Z,1019.07
2018-09-09T10:25:45.753Z,1019.08
2018-09-09T10:26:45.756Z,1019.07
2018-09-09T10:27:45.756Z,1019.05
2018-09-09T10:28:45.761Z,1019.06
2018-09-09T10:29:45.758Z,1019.07
2018-09-09T10:30:45.760Z,1019.12
2018-09-09T10:31:45.762Z,1019.12
2018-09-09T10:32:45.765Z,1019.10
2018-09-09T10:33:45.766Z,1019.07
2018-09-09T10:34:45.783Z,1019.02
2018-09-09T10:35:45.768Z,1019.10
2018-09-09T10:36:45.769Z,1019.14
2018-09-09T10:37:45.771Z,1019.21
2018-09-09T10:38:45.770Z,1019.21
2018-09-09T10:39:45.772Z,1019.23
2018-09-09T10:40:45.776Z,1019.23
2018-09-09T10:41:45.779Z,1019.32
2018-09-09T10:42:45.781Z,1019.26
2018-09-09T10:43:45.793Z,1019.21
2018-09-09T10:44:45.781Z,1019.23
2018-09-09T10:45:45.781Z,1019.21
2018-09-09T10:46:45.922Z,1019.19
2018-09-09T10:47:45.784Z,1019.21
2018-09-09T10:48:45.788Z,1019.24
2018-09-09T10:49:45.786Z,1019.24
2018-09-09T10:50:45.786Z,1019.17
2018-09-09T10:51:45.796Z,1019.18
2018-09-09T10:52:45.793Z,1019.21
2018-09-09T10:53:45.803Z,1019.21
2018-09-09T10:54:45.796Z,1019.20
2018-09-09T10:55:45.802Z,1019.18
2018-09-09T10:56:45.801Z,1019.17
2018-09-09T10:57:45.802Z,1019.18
2018-09-09T10:58:45.839Z,1019.19
2018-09-09T10:59:45.810Z,1019.20
2018-09-09T11:00:45.809Z,1019.18
2018-09-09T11:01:45.818Z,1019.18
2018-09-09T11:02:45.814Z,1019.16
2018-09-09T11:03:45.814Z,1019.12
2018-09-09T11:04:45.816Z,1019.11
2018-09-09T11:05:45.830Z,1019.07
2018-09-09T11:06:45.883Z,1019.07
2018-09-09T11:07:45.824Z,1019.00
2018-09-09T11:08:45.825Z,1019.00
2018-09-09T11:09:45.830Z,1019.02
2018-09-09T11:10:45.830Z,1019.01
2018-09-09T11:11:45.833Z,1019.00
2018-09-09T11:12:45.849Z,1019.03
2018-09-09T11:13:45.837Z,1019.06
2018-09-09T11:14:45.837Z,1018.99
2018-09-09T11:15:45.841Z,1018.97
2018-09-09T11:16:45.849Z,1019.02
2018-09-09T11:17:45.847Z,1018.98
2018-09-09T11:18:45.846Z,1018.98
2018-09-09T11:19:45.850Z,1018.88
2018-09-09T11:20:45.860Z,1018.82
2018-09-09T11:21:45.857Z,1018.82
2018-09-09T11:22:45.856Z,1018.73
2018-09-09T11:23:45.868Z,1018.71
2018-09-09T11:24:45.866Z,1018.70
2018-09-09T11:25:45.869Z,1018.58
2018-09-09T11:26:45.864Z,1018.59
2018-09-09T11:27:46.080Z,1018.60
2018-09-09T11:28:45.878Z,1018.62
2018-09-09T11:29:45.911Z,1018.60
2018-09-09T11:30:45.877Z,1018.55
2018-09-09T11:31:45.879Z,1018.58
2018-09-09T11:32:45.881Z,1018.50
2018-09-09T11:33:45.882Z,1018.47
2018-09-09T11:34:45.885Z,1018.47
2018-09-09T11:35:45.887Z,1018.46
2018-09-09T11:36:45.892Z,1018.46
2018-09-09T11:37:45.892Z,1018.42
2018-09-09T11:38:45.898Z,1018.36
2018-09-09T11:39:45.896Z,1018.32
2018-09-09T11:40:45.969Z,1018.35
2018-09-09T11:41:45.902Z,1018.33
2018-09-09T11:42:45.906Z,1018.31
2018-09-09T11:43:45.912Z,1018.27
2018-09-09T11:44:45.912Z,1018.26
2018-09-09T11:45:45.911Z,1018.29
2018-09-09T11:46:45.914Z,1018.30
2018-09-09T11:47:45.920Z,1018.28
2018-09-09T11:48:45.919Z,1018.25
2018-09-09T11:49:45.919Z,1018.21
2018-09-09T11:50:45.923Z,1018.23
2018-09-09T11:51:45.926Z,1018.20
2018-09-09T11:52:45.934Z,1018.23
2018-09-09T11:53:45.935Z,1018.22
2018-09-09T11:54:45.943Z,1018.21
2018-09-09T11:55:45.936Z,1018.20
2018-09-09T11:56:45.943Z,1018.21
2018-09-09T11:57:45.940Z,1018.14
2018-09-09T11:58:45.942Z,1018.10
2018-09-09T11:59:45.951Z,1017.86
2018-09-09T12:00:45.950Z,1017.80
2018-09-09T12:01:45.950Z,1017.96
2018-09-09T12:02:45.958Z,1018.13
2018-09-09T12:03:45.957Z,1018.20
2018-09-09T12:04:45.959Z,1018.17
2018-09-09T12:05:45.961Z,1018.16
2018-09-09T12:06:45.967Z,1018.11